createdAt,value
2023-05-08T19:19:24.105Z,14.45
2023-05-08T19:20:26.291Z,12.25
2023-05-08T19:21:28.259Z,13.05
2023-05-08T19:22:31.554Z,17.38
2023-05-08T19:23:34.039Z,20.05
2023-05-08T19:24:36.212Z,7.80
2023-05-08T19:25:38.334Z,13.52
2023-05-08T19:26:40.174Z,13.40
2023-05-08T19:27:42.060Z,11.05
2023-05-08T19:28:43.998Z,16.35
2023-05-08T19:29:45.843Z,14.23
2023-05-08T19:30:47.836Z,22.05
2023-05-08T19:31:49.995Z,15.70
2023-05-08T19:32:52.050Z,11.63
2023-05-08T19:33:54.752Z,14.40
2023-05-08T19:34:57.598Z,14.45
2023-05-08T19:35:59.591Z,13.10
2023-05-08T19:37:01.658Z,10.32
2023-05-08T19:38:03.642Z,15.82
2023-05-08T19:39:05.660Z,11.80
2023-05-08T19:40:08.121Z,13.48
2023-05-08T19:41:11.806Z,15.15
2023-05-08T19:42:14.073Z,16.10
2023-05-08T19:43:16.060Z,17.30
2023-05-08T19:44:17.928Z,11.98
2023-05-08T19:45:19.933Z,13.90
2023-05-08T19:46:22.333Z,19.27
2023-05-08T19:47:24.402Z,16.45
2023-05-08T19:48:26.545Z,22.05
2023-05-08T19:49:28.396Z,18.35
2023-05-08T19:50:30.273Z,16.73
2023-05-08T19:51:32.193Z,15.65
2023-05-08T19:52:34.214Z,17.85
2023-05-08T19:53:36.134Z,24.98
2023-05-08T19:54:38.075Z,19.77
2023-05-08T19:55:40.018Z,17.42
2023-05-08T19:56:41.865Z,23.02
2023-05-08T19:57:43.900Z,32.55
2023-05-08T19:58:46.013Z,23.20
2023-05-08T19:59:47.794Z,23.02
2023-05-08T20:00:51.220Z,27.02
2023-05-08T20:01:53.994Z,21.02
2023-05-08T20:02:56.316Z,17.92
2023-05-08T20:04:00.629Z,24.85
2023-05-08T20:06:08.290Z,19.40
2023-05-08T20:07:11.151Z,21.88
2023-05-08T20:08:13.213Z,21.80
2023-05-08T20:09:15.098Z,24.40
2023-05-08T20:10:17.229Z,23.15
2023-05-08T20:11:19.100Z,29.08
2023-05-08T20:12:20.960Z,19.52
2023-05-08T20:13:22.892Z,22.13
2023-05-08T20:14:24.807Z,20.55
2023-05-08T20:15:27.082Z,19.33
2023-05-08T20:16:29.045Z,19.98
2023-05-08T20:17:30.973Z,25.95
2023-05-08T20:18:34.183Z,25.67
2023-05-08T20:19:36.326Z,26.23
2023-05-08T20:20:38.306Z,28.80
2023-05-08T20:21:40.154Z,23.23
2023-05-08T20:22:42.119Z,38.85
2023-05-08T20:23:44.061Z,25.88
2023-05-08T20:24:46.093Z,24.90
2023-05-08T20:25:48.180Z,21.40
2023-05-08T20:26:52.320Z,26.20
2023-05-08T20:28:57.023Z,19.83
2023-05-08T20:29:59.170Z,15.57
2023-05-08T20:31:02.140Z,16.02
2023-05-08T20:32:04.200Z,20.20
2023-05-08T20:33:06.185Z,21.25
2023-05-08T20:34:08.201Z,17.58
2023-05-08T20:35:10.139Z,16.17
2023-05-08T20:36:12.018Z,13.70
2023-05-08T20:37:16.178Z,12.80
2023-05-08T20:38:18.184Z,13.80
2023-05-08T20:39:20.218Z,15.98
2023-05-08T20:40:22.316Z,15.13
2023-05-08T20:41:24.365Z,16.50
2023-05-08T20:42:26.285Z,13.98
2023-05-08T20:43:28.132Z,17.75
2023-05-08T20:44:29.998Z,14.85
2023-05-08T20:45:31.931Z,19.13
2023-05-08T20:46:33.773Z,14.63
2023-05-08T20:47:36.175Z,19.17
2023-05-08T20:48:38.584Z,14.55
2023-05-08T20:49:40.481Z,19.27
2023-05-08T20:50:42.370Z,18.35
2023-05-08T20:51:44.210Z,22.58
2023-05-08T20:52:46.094Z,22.30
2023-05-08T20:53:47.957Z,13.98
2023-05-08T20:54:50.539Z,21.75
2023-05-08T20:56:00.091Z,17.88
2023-05-08T20:57:02.286Z,19.77
2023-05-08T20:58:04.331Z,15.80
2023-05-08T20:59:06.210Z,13.35
2023-05-08T21:00:09.071Z,11.40
2023-05-08T21:01:11.523Z,14.90
2023-05-08T21:02:13.868Z,19.92
2023-05-08T21:03:15.801Z,19.08
2023-05-08T21:04:17.679Z,21.60
2023-05-08T21:05:19.568Z,18.98
2023-05-08T21:06:21.621Z,17.55
2023-05-08T21:07:23.734Z,22.08
2023-05-08T21:08:26.618Z,20.52
2023-05-08T21:09:28.582Z,15.07
2023-05-08T21:10:31.546Z,16.23
2023-05-08T21:11:33.694Z,19.35
2023-05-08T21:12:35.905Z,12.52
2023-05-08T21:13:38.043Z,12.15
2023-05-08T21:14:39.873Z,16.83
2023-05-08T21:15:41.692Z,16.88
2023-05-08T21:16:43.745Z,10.23
2023-05-08T21:17:46.036Z,13.00
2023-05-08T21:18:48.068Z,10.95
2023-05-08T21:19:50.002Z,10.45
2023-05-08T21:20:51.861Z,8.77
2023-05-08T21:21:53.703Z,7.85
2023-05-08T21:22:55.695Z,7.20
2023-05-08T21:23:57.885Z,6.97
2023-05-08T21:24:59.734Z,7.05
2023-05-08T21:26:01.594Z,6.93
2023-05-08T21:27:03.611Z,11.25
2023-05-08T21:28:05.790Z,8.90
2023-05-08T21:29:07.934Z,10.48
2023-05-08T21:30:15.218Z,14.32
2023-05-08T21:31:17.474Z,9.52
2023-05-08T21:32:19.327Z,9.27
2023-05-08T21:33:21.368Z,9.55
2023-05-08T21:34:23.309Z,10.13
2023-05-08T21:35:25.343Z,7.88
2023-05-08T21:36:27.235Z,7.47
2023-05-08T21:37:29.087Z,7.53
2023-05-08T21:38:30.964Z,7.68
2023-05-08T21:39:32.900Z,8.25
2023-05-08T21:40:35.491Z,6.15
2023-05-08T21:41:37.348Z,5.85
2023-05-08T21:42:39.848Z,7.85
2023-05-08T21:43:41.904Z,7.90
2023-05-08T21:44:43.935Z,8.27
2023-05-08T21:45:45.720Z,6.28
2023-05-08T21:46:47.765Z,5.72
2023-05-08T21:47:49.882Z,7.45
2023-05-08T21:48:51.736Z,8.25
2023-05-08T21:49:57.330Z,6.57
2023-05-08T21:50:59.829Z,7.95
2023-05-08T21:52:01.734Z,6.40
2023-05-08T21:53:04.501Z,9.35
2023-05-08T21:54:06.401Z,6.60
2023-05-08T21:55:08.970Z,8.25
2023-05-08T21:56:10.842Z,7.47
2023-05-08T21:57:12.690Z,7.68
2023-05-08T21:58:14.816Z,8.95
2023-05-08T21:59:17.073Z,8.57
2023-05-08T22:00:20.229Z,5.32
2023-05-08T22:01:22.522Z,9.38
2023-05-08T22:02:24.503Z,7.70
2023-05-08T22:03:26.613Z,9.10
2023-05-08T22:04:28.539Z,8.27
2023-05-08T22:05:30.531Z,8.55
2023-05-08T22:06:33.316Z,7.35
2023-05-08T22:07:35.367Z,9.40
2023-05-08T22:08:37.296Z,11.13
2023-05-08T22:09:39.182Z,10.10
2023-05-08T22:10:41.448Z,11.50
2023-05-08T22:11:43.406Z,13.60
2023-05-08T22:12:45.303Z,12.35
2023-05-08T22:13:47.164Z,17.15
2023-05-08T22:14:49.036Z,14.05
2023-05-08T22:15:51.132Z,10.68
2023-05-08T22:16:53.287Z,11.50
2023-05-08T22:17:58.301Z,14.65
2023-05-08T22:19:00.294Z,9.95
2023-05-08T22:20:02.129Z,11.18
2023-05-08T22:21:04.154Z,6.65
2023-05-08T22:22:06.030Z,10.50
2023-05-08T22:23:07.990Z,12.82
2023-05-08T22:24:11.619Z,12.00
2023-05-08T22:25:13.871Z,13.70
2023-05-08T22:26:15.859Z,13.95
2023-05-08T22:27:17.662Z,9.85
2023-05-08T22:28:19.719Z,11.00
2023-05-08T22:29:21.573Z,12.57
2023-05-08T22:30:23.555Z,7.78
2023-05-08T22:31:25.683Z,9.77
2023-05-08T22:32:28.428Z,6.72
2023-05-08T22:33:34.118Z,8.07
2023-05-08T22:34:36.293Z,8.00
2023-05-08T22:35:38.202Z,7.80
2023-05-08T22:36:40.056Z,7.90
2023-05-08T22:37:41.831Z,9.00
2023-05-08T22:38:43.709Z,6.97
2023-05-08T22:39:45.751Z,7.97
2023-05-08T22:40:48.399Z,8.45
2023-05-08T22:41:50.332Z,8.38
2023-05-08T22:42:53.664Z,7.60
2023-05-08T22:43:56.498Z,11.07
2023-05-08T22:44:58.479Z,6.25
2023-05-08T22:46:00.731Z,5.95
2023-05-08T22:47:03.194Z,8.15
2023-05-08T22:48:05.621Z,7.28
2023-05-08T22:49:07.707Z,7.43
2023-05-08T22:50:09.889Z,8.25
2023-05-08T22:51:11.855Z,7.75
2023-05-08T22:52:13.974Z,8.90
2023-05-08T22:53:16.762Z,6.80
2023-05-08T22:54:18.644Z,7.63
2023-05-08T22:55:20.542Z,8.73
2023-05-08T22:56:22.468Z,8.10
2023-05-08T22:57:24.294Z,8.73
2023-05-08T22:58:27.350Z,6.32
2023-05-08T22:59:29.533Z,5.93
2023-05-08T23:00:31.355Z,7.28
2023-05-08T23:01:33.257Z,11.00
2023-05-08T23:02:35.571Z,7.97
2023-05-08T23:03:37.544Z,9.82
2023-05-08T23:04:39.496Z,9.00
2023-05-08T23:05:41.490Z,7.13
2023-05-08T23:06:43.320Z,25.40
2023-05-08T23:07:45.162Z,14.48
2023-05-08T23:08:47.080Z,13.43
2023-05-08T23:09:49.000Z,13.55
2023-05-08T23:10:50.936Z,11.05
2023-05-08T23:11:52.963Z,10.88
2023-05-08T23:12:54.843Z,11.35
2023-05-08T23:13:56.823Z,12.00
2023-05-08T23:14:58.806Z,12.27
2023-05-08T23:16:00.758Z,12.68
2023-05-08T23:17:02.879Z,9.38
2023-05-08T23:18:04.928Z,13.65
2023-05-08T23:19:07.537Z,12.13
2023-05-08T23:20:09.881Z,8.88
2023-05-08T23:21:11.989Z,9.77
2023-05-08T23:22:13.794Z,11.48
2023-05-08T23:23:15.772Z,10.50
2023-05-08T23:24:19.379Z,12.77
2023-05-08T23:25:22.052Z,10.10
2023-05-08T23:26:24.049Z,9.25
2023-05-08T23:27:26.520Z,7.35
2023-05-08T23:28:28.429Z,5.75
2023-05-08T23:29:30.420Z,8.50
2023-05-08T23:30:32.244Z,8.38
2023-05-08T23:31:34.177Z,7.88
2023-05-08T23:32:36.153Z,8.15
2023-05-08T23:33:38.043Z,8.20
2023-05-08T23:34:42.163Z,7.35
2023-05-08T23:36:46.012Z,7.20
2023-05-08T23:37:48.120Z,8.52
2023-05-08T23:38:50.048Z,9.02
2023-05-08T23:39:52.032Z,15.13
2023-05-08T23:40:53.914Z,9.00
2023-05-08T23:41:55.967Z,8.35
2023-05-08T23:42:57.789Z,7.95
2023-05-08T23:43:59.765Z,9.85
2023-05-08T23:45:01.599Z,10.38
2023-05-08T23:46:03.803Z,9.93
2023-05-08T23:47:06.236Z,9.02
2023-05-08T23:48:08.415Z,9.60
2023-05-08T23:49:10.403Z,7.72
2023-05-08T23:50:12.663Z,8.95
2023-05-08T23:51:14.613Z,8.50
2023-05-08T23:52:17.334Z,9.40
2023-05-08T23:53:19.314Z,6.50
2023-05-08T23:54:21.229Z,8.77
2023-05-08T23:55:23.253Z,7.40
2023-05-08T23:56:25.187Z,9.52
2023-05-08T23:57:27.015Z,12.13
2023-05-08T23:58:29.053Z,6.30
2023-05-08T23:59:30.988Z,8.25
